createdAt,value
2022-10-23T00:00:03.420Z,5.4
2022-10-23T00:02:02.418Z,4.9
2022-10-23T00:04:05.152Z,4.6
2022-10-23T00:06:04.479Z,5.2
2022-10-23T00:08:02.418Z,4.4
2022-10-23T00:10:03.024Z,5.2
2022-10-23T00:12:02.196Z,4.4
2022-10-23T00:14:06.056Z,4.7
2022-10-23T00:16:02.195Z,5.1
2022-10-23T00:18:02.707Z,5.8
2022-10-23T00:20:02.204Z,5.5
2022-10-23T00:22:02.193Z,5.1
2022-10-23T00:24:02.377Z,4.7
2022-10-23T00:26:02.879Z,5.1
2022-10-23T00:28:02.246Z,5.1
2022-10-23T00:30:05.400Z,5.7
2022-10-23T00:32:02.239Z,5.4
2022-10-23T00:34:03.742Z,5.7
2022-10-23T00:36:04.303Z,5.8
2022-10-23T00:38:02.752Z,5.8
2022-10-23T00:40:02.271Z,4.6
2022-10-23T00:42:02.571Z,5.9
2022-10-23T00:44:08.352Z,5.4
2022-10-23T00:46:02.882Z,5.0
2022-10-23T00:48:03.757Z,5.0
2022-10-23T00:50:02.911Z,5.1
2022-10-23T00:52:06.935Z,6.2
2022-10-23T00:56:02.835Z,6.5
2022-10-23T00:58:02.379Z,6.0
2022-10-23T01:00:03.715Z,6.2
2022-10-23T01:02:02.351Z,6.5
2022-10-23T01:04:05.007Z,5.3
2022-10-23T01:06:10.951Z,7.2
2022-10-23T01:08:08.757Z,6.8
2022-10-23T01:10:10.335Z,7.3
2022-10-23T01:12:10.610Z,6.8
2022-10-23T01:16:08.981Z,5.5
2022-10-23T01:18:10.285Z,8.3
2022-10-23T01:20:19.630Z,9.4
2022-10-23T01:22:16.751Z,5.1
2022-10-23T01:24:12.217Z,7.4
2022-10-23T01:26:18.418Z,6.3
2022-10-23T01:28:07.229Z,5.7
2022-10-23T01:30:06.285Z,7.0
2022-10-23T01:32:07.836Z,7.0
2022-10-23T01:34:09.885Z,5.5
2022-10-23T01:36:06.463Z,6.0
2022-10-23T01:38:09.673Z,7.4
2022-10-23T01:40:05.661Z,5.9
2022-10-23T01:42:06.919Z,6.5
2022-10-23T01:44:09.083Z,6.3
2022-10-23T01:46:05.446Z,7.7
2022-10-23T01:48:04.633Z,6.9
2022-10-23T01:50:04.723Z,6.0
2022-10-23T01:52:06.360Z,6.2
2022-10-23T01:54:07.281Z,6.7
2022-10-23T01:56:06.271Z,5.8
2022-10-23T01:58:04.612Z,7.6
2022-10-23T02:00:07.156Z,5.6
2022-10-23T02:02:04.448Z,6.9
2022-10-23T02:04:05.789Z,7.1
2022-10-23T02:06:02.504Z,7.9
2022-10-23T02:08:03.239Z,6.0
2022-10-23T02:10:05.024Z,7.6
2022-10-23T02:12:09.131Z,9.6
2022-10-23T02:14:11.561Z,7.0
2022-10-23T02:16:12.319Z,7.8
2022-10-23T02:18:09.418Z,6.3
2022-10-23T02:20:16.504Z,6.3
2022-10-23T02:22:08.192Z,5.3
2022-10-23T02:24:07.724Z,6.1
2022-10-23T02:26:07.234Z,5.7
2022-10-23T02:28:08.194Z,5.3
2022-10-23T02:30:06.819Z,5.4
2022-10-23T02:32:03.077Z,5.7
2022-10-23T02:34:02.420Z,6.2
2022-10-23T02:36:03.284Z,5.4
2022-10-23T02:38:02.946Z,5.2
2022-10-23T02:40:03.563Z,7.0
2022-10-23T02:42:11.565Z,7.1
2022-10-23T02:44:10.476Z,7.2
2022-10-23T02:46:12.378Z,6.4
2022-10-23T02:48:12.344Z,7.1
2022-10-23T02:50:10.758Z,5.7
2022-10-23T02:52:09.510Z,7.2
2022-10-23T02:54:08.698Z,8.2
2022-10-23T02:56:09.263Z,6.4
2022-10-23T02:58:10.504Z,7.3
2022-10-23T03:00:07.282Z,7.1
2022-10-23T03:02:06.749Z,8.0
2022-10-23T03:04:05.711Z,7.3
2022-10-23T03:06:04.069Z,7.4
2022-10-23T03:08:04.516Z,6.7
2022-10-23T03:10:03.045Z,9.9
2022-10-23T03:12:02.191Z,7.5
2022-10-23T03:14:02.368Z,8.0
2022-10-23T03:16:02.231Z,7.5
2022-10-23T03:18:02.410Z,8.7
2022-10-23T03:20:02.429Z,6.8
2022-10-23T03:22:02.383Z,7.6
2022-10-23T03:24:02.148Z,8.3
2022-10-23T03:26:02.779Z,5.7
2022-10-23T03:28:02.808Z,7.5
2022-10-23T03:30:04.138Z,6.5
2022-10-23T03:32:02.825Z,6.3
2022-10-23T03:34:04.102Z,6.1
2022-10-23T03:36:02.181Z,7.3
2022-10-23T03:38:02.232Z,5.9
2022-10-23T03:40:03.290Z,6.9
2022-10-23T03:42:03.207Z,6.5
2022-10-23T03:44:02.396Z,6.5
2022-10-23T03:46:02.273Z,6.8
2022-10-23T03:48:02.186Z,6.1
2022-10-23T03:50:02.790Z,6.4
2022-10-23T03:52:02.188Z,7.8
2022-10-23T03:54:02.803Z,7.3
2022-10-23T03:56:03.002Z,7.2
2022-10-23T03:58:02.247Z,6.2
2022-10-23T04:00:02.238Z,7.8
2022-10-23T04:02:02.379Z,6.9
2022-10-23T04:04:03.225Z,6.7
2022-10-23T04:06:02.439Z,9.3
2022-10-23T04:08:02.259Z,5.8
2022-10-23T04:10:02.828Z,7.5
2022-10-23T04:12:02.177Z,6.6
2022-10-23T04:14:02.243Z,6.1
2022-10-23T04:16:03.470Z,6.0
2022-10-23T04:18:02.760Z,8.6
2022-10-23T04:20:02.446Z,8.5
2022-10-23T04:22:02.798Z,7.8
2022-10-23T04:24:02.187Z,7.8
2022-10-23T04:26:02.274Z,7.5
2022-10-23T04:28:02.945Z,6.8
2022-10-23T04:30:03.361Z,8.3
2022-10-23T04:32:02.291Z,9.5
2022-10-23T04:34:02.235Z,10.1
2022-10-23T04:36:02.274Z,6.7
2022-10-23T04:38:03.637Z,7.6
2022-10-23T04:40:02.883Z,9.2
2022-10-23T04:42:02.380Z,6.9
2022-10-23T04:44:02.396Z,7.3
2022-10-23T04:46:03.297Z,6.9
2022-10-23T04:48:02.710Z,7.9
2022-10-23T04:50:02.324Z,9.4
2022-10-23T04:52:02.124Z,8.5
2022-10-23T04:54:02.378Z,7.7
2022-10-23T04:56:03.210Z,8.1
2022-10-23T04:58:02.257Z,7.7
2022-10-23T05:00:02.459Z,6.9
2022-10-23T05:02:02.770Z,9.9
2022-10-23T05:04:02.215Z,9.4
2022-10-23T05:06:02.695Z,7.0
2022-10-23T05:08:02.222Z,6.0
2022-10-23T05:10:03.158Z,5.9
2022-10-23T05:12:02.345Z,6.1
2022-10-23T05:14:02.266Z,5.3
2022-10-23T05:16:02.220Z,5.0
2022-10-23T05:18:11.366Z,4.5
2022-10-23T05:20:05.661Z,4.7
2022-10-23T05:22:02.845Z,5.3
2022-10-23T05:24:02.415Z,5.7
2022-10-23T05:26:03.472Z,5.3
2022-10-23T05:28:02.223Z,5.8
2022-10-23T05:30:02.330Z,6.0
2022-10-23T05:32:06.082Z,4.3
2022-10-23T05:34:02.228Z,4.5
2022-10-23T05:36:03.192Z,4.3
2022-10-23T05:38:03.062Z,5.0
2022-10-23T05:40:02.275Z,5.4
2022-10-23T05:42:02.503Z,5.4
2022-10-23T05:44:02.621Z,6.5
2022-10-23T05:46:06.053Z,4.4
2022-10-23T05:48:10.960Z,6.2
2022-10-23T05:50:02.261Z,5.4
2022-10-23T05:52:02.198Z,4.6
2022-10-23T05:54:02.360Z,5.3
2022-10-23T05:56:05.804Z,6.4
2022-10-23T05:58:03.369Z,6.0
2022-10-23T06:00:02.227Z,6.5
2022-10-23T06:02:02.423Z,6.7
2022-10-23T06:04:03.949Z,8.0
2022-10-23T06:06:02.456Z,5.9
2022-10-23T06:08:02.389Z,5.9
2022-10-23T06:10:02.242Z,6.9
2022-10-23T06:12:02.447Z,7.0
2022-10-23T06:14:02.286Z,7.9
2022-10-23T06:16:10.095Z,6.7
2022-10-23T06:18:03.862Z,7.9
2022-10-23T06:20:02.212Z,5.6
2022-10-23T06:22:04.242Z,7.3
2022-10-23T06:24:02.197Z,5.7
2022-10-23T06:26:04.125Z,7.9
2022-10-23T06:28:02.182Z,8.6
2022-10-23T06:30:02.583Z,13.1
2022-10-23T06:32:02.268Z,9.5
2022-10-23T06:34:02.232Z,8.8
2022-10-23T06:36:03.215Z,9.8
2022-10-23T06:38:02.162Z,8.6
2022-10-23T06:40:02.216Z,8.7
2022-10-23T06:42:03.164Z,7.8
2022-10-23T06:44:02.280Z,7.0
2022-10-23T06:46:03.357Z,6.4
2022-10-23T06:48:02.978Z,7.0
2022-10-23T06:50:02.260Z,7.7
2022-10-23T06:52:02.221Z,8.8
2022-10-23T06:54:02.946Z,6.7
2022-10-23T06:56:04.305Z,8.5
2022-10-23T06:58:02.295Z,9.1
2022-10-23T07:00:02.468Z,8.2
2022-10-23T07:02:02.283Z,7.4
2022-10-23T07:04:02.295Z,9.2
2022-10-23T07:06:04.081Z,6.3
2022-10-23T07:08:04.949Z,6.0
2022-10-23T07:10:02.283Z,7.1
2022-10-23T07:12:02.126Z,5.9
2022-10-23T07:14:02.190Z,7.6
2022-10-23T07:16:12.294Z,5.9
2022-10-23T07:18:03.371Z,5.6
2022-10-23T07:20:02.276Z,7.7
2022-10-23T07:22:02.150Z,6.0
2022-10-23T07:24:03.841Z,6.8
2022-10-23T07:26:06.322Z,5.9
2022-10-23T07:28:02.241Z,5.9
2022-10-23T07:30:03.020Z,5.9
2022-10-23T07:32:02.364Z,5.6
2022-10-23T07:34:03.074Z,6.1
2022-10-23T07:36:05.143Z,20.7
2022-10-23T07:38:02.171Z,16.8
2022-10-23T07:40:02.253Z,14.2
2022-10-23T07:42:02.357Z,6.4
2022-10-23T07:44:02.178Z,10.1
2022-10-23T07:46:02.825Z,5.9
2022-10-23T07:48:02.163Z,7.2
2022-10-23T07:50:02.213Z,9.4
2022-10-23T07:52:04.677Z,8.1
2022-10-23T07:54:02.471Z,7.1
2022-10-23T07:56:04.219Z,17.7
2022-10-23T07:58:02.209Z,5.8
2022-10-23T08:00:02.225Z,6.4
2022-10-23T08:02:02.267Z,9.7
2022-10-23T08:04:02.306Z,9.5
2022-10-23T08:06:02.916Z,9.6
2022-10-23T08:08:02.186Z,10.7
2022-10-23T08:10:02.215Z,5.6
2022-10-23T08:12:02.830Z,9.0
2022-10-23T08:14:04.490Z,6.9
2022-10-23T08:16:02.254Z,5.6
2022-10-23T08:18:02.341Z,6.2
2022-10-23T08:20:02.307Z,7.9
2022-10-23T08:22:03.502Z,5.3
2022-10-23T08:24:02.218Z,4.8
2022-10-23T08:26:05.006Z,6.2
2022-10-23T08:28:05.529Z,7.7
2022-10-23T08:30:02.455Z,5.9
2022-10-23T08:32:02.236Z,6.5
2022-10-23T08:34:02.191Z,6.8
2022-10-23T08:36:02.824Z,5.9
2022-10-23T08:38:03.126Z,6.5
2022-10-23T08:40:02.514Z,7.1
2022-10-23T08:42:03.086Z,7.2
2022-10-23T08:44:09.268Z,6.4
2022-10-23T08:46:09.423Z,5.7
2022-10-23T08:48:12.336Z,6.2
2022-10-23T08:50:08.463Z,5.9
2022-10-23T08:52:13.180Z,8.3
2022-10-23T08:54:12.465Z,6.5
2022-10-23T08:56:05.201Z,6.5
2022-10-23T08:58:06.857Z,5.6
2022-10-23T09:00:06.745Z,7.3
2022-10-23T09:02:11.277Z,5.5
2022-10-23T09:04:03.780Z,5.5
2022-10-23T09:06:12.222Z,7.3
2022-10-23T09:08:16.348Z,6.6
2022-10-23T09:10:19.112Z,13.1
2022-10-23T09:12:07.210Z,13.1
2022-10-23T09:14:21.561Z,5.6
2022-10-23T09:16:07.793Z,5.6
2022-10-23T09:18:12.082Z,5.9
2022-10-23T09:20:14.506Z,7.1
2022-10-23T09:22:02.441Z,5.4
2022-10-23T09:24:02.125Z,10.5
2022-10-23T09:26:05.429Z,7.1
2022-10-23T09:28:05.520Z,5.7
2022-10-23T09:30:03.336Z,6.5
2022-10-23T09:32:05.911Z,5.9
2022-10-23T09:34:02.348Z,6.9
2022-10-23T09:36:04.475Z,6.4
2022-10-23T09:38:02.201Z,7.6
2022-10-23T09:40:14.446Z,7.2
2022-10-23T09:42:21.236Z,6.5
2022-10-23T09:44:03.078Z,8.0
2022-10-23T09:46:05.717Z,7.5
2022-10-23T09:48:07.090Z,5.5
2022-10-23T09:50:02.220Z,8.9
2022-10-23T09:52:05.434Z,6.1
2022-10-23T09:54:03.138Z,7.2
2022-10-23T09:56:07.530Z,6.0
2022-10-23T09:58:02.183Z,8.8
2022-10-23T10:00:06.947Z,8.1
2022-10-23T10:02:04.286Z,6.7
2022-10-23T10:04:03.283Z,7.1
2022-10-23T10:06:04.711Z,5.5
2022-10-23T10:08:10.757Z,8.5
2022-10-23T10:10:02.203Z,8.4
2022-10-23T10:12:19.797Z,6.3
2022-10-23T10:14:21.431Z,6.4
2022-10-23T10:16:07.070Z,6.2
2022-10-23T10:18:14.488Z,7.9
2022-10-23T10:20:19.786Z,6.3
2022-10-23T10:22:11.854Z,8.5
2022-10-23T10:24:08.272Z,7.9
2022-10-23T10:26:11.534Z,5.9
2022-10-23T10:28:20.064Z,5.7
2022-10-23T10:30:09.029Z,4.6
2022-10-23T10:32:16.441Z,5.8
2022-10-23T10:34:11.214Z,6.6
2022-10-23T10:36:13.397Z,5.3
2022-10-23T10:38:18.636Z,6.3
2022-10-23T10:40:14.148Z,5.8
2022-10-23T10:42:21.252Z,6.3
2022-10-23T10:44:19.969Z,6.1
2022-10-23T10:46:11.553Z,5.6
2022-10-23T10:48:20.313Z,5.3
2022-10-23T10:50:15.726Z,9.1
2022-10-23T10:52:14.944Z,6.0
2022-10-23T10:54:18.982Z,6.1
2022-10-23T10:56:05.344Z,7.9
2022-10-23T10:58:06.608Z,7.7
2022-10-23T11:00:12.795Z,7.3
2022-10-23T11:02:13.730Z,8.8
2022-10-23T11:04:11.203Z,8.3
2022-10-23T11:06:04.827Z,7.8
2022-10-23T11:08:10.976Z,7.3
2022-10-23T11:10:13.282Z,7.8
2022-10-23T11:12:02.270Z,8.6
2022-10-23T11:14:02.624Z,8.7
2022-10-23T11:16:06.482Z,7.6
2022-10-23T11:18:07.154Z,9.5
2022-10-23T11:20:10.266Z,8.1
2022-10-23T11:22:10.803Z,8.7
2022-10-23T11:24:20.662Z,8.0
2022-10-23T11:26:16.197Z,9.1
2022-10-23T11:28:19.408Z,9.7
2022-10-23T11:30:17.633Z,8.7
2022-10-23T11:32:19.301Z,7.9
2022-10-23T11:34:20.570Z,10.7
2022-10-23T11:36:13.757Z,10.1
2022-10-23T11:38:15.482Z,11.7
2022-10-23T11:40:13.913Z,7.6
2022-10-23T11:42:14.214Z,9.4
2022-10-23T11:44:04.759Z,8.6
2022-10-23T11:46:12.799Z,7.9
2022-10-23T11:48:04.832Z,8.7
2022-10-23T11:50:16.458Z,8.2
2022-10-23T11:52:04.633Z,8.7
2022-10-23T11:54:09.457Z,9.9
2022-10-23T11:56:06.397Z,9.5
2022-10-23T11:58:21.240Z,7.9
2022-10-23T12:00:02.261Z,6.7
2022-10-23T12:02:13.888Z,6.7
2022-10-23T12:04:14.199Z,9.0
2022-10-23T12:06:06.392Z,7.4
2022-10-23T12:08:05.678Z,6.8
2022-10-23T12:10:06.765Z,7.0
2022-10-23T12:12:05.315Z,8.8
2022-10-23T12:14:02.292Z,7.7
2022-10-23T12:16:02.926Z,7.1
2022-10-23T12:18:14.805Z,8.5
2022-10-23T12:20:14.074Z,6.8
2022-10-23T12:22:03.381Z,6.2
2022-10-23T12:24:22.311Z,7.0
2022-10-23T12:26:18.237Z,7.7
2022-10-23T12:28:08.878Z,7.1
2022-10-23T12:30:15.392Z,6.9
2022-10-23T12:32:17.283Z,6.8
2022-10-23T12:34:13.777Z,9.6
2022-10-23T12:36:16.549Z,6.8
2022-10-23T12:38:14.113Z,8.4
2022-10-23T12:40:02.331Z,6.9
2022-10-23T12:42:02.621Z,9.5
2022-10-23T12:44:05.291Z,8.0
2022-10-23T12:46:17.621Z,13.2
2022-10-23T12:48:02.181Z,7.7
2022-10-23T12:50:03.239Z,8.0
2022-10-23T12:52:05.465Z,9.8
2022-10-23T12:54:03.833Z,9.8
2022-10-23T12:56:05.251Z,10.0
2022-10-23T12:58:02.295Z,7.0
2022-10-23T13:00:09.962Z,7.6
2022-10-23T13:06:03.739Z,8.1
2022-10-23T13:08:03.009Z,8.5
2022-10-23T13:10:04.197Z,8.4
2022-10-23T13:12:06.533Z,9.0
2022-10-23T13:14:02.266Z,9.0
2022-10-23T13:16:16.146Z,9.9
2022-10-23T13:18:03.916Z,9.9
2022-10-23T13:22:06.281Z,10.5
2022-10-23T13:24:02.276Z,10.5
2022-10-23T13:26:04.986Z,9.7
2022-10-23T13:28:15.751Z,12.6
2022-10-23T13:30:03.966Z,12.6
2022-10-23T13:32:11.060Z,11.8
2022-10-23T13:34:16.568Z,11.6
2022-10-23T13:36:04.888Z,11.6
2022-10-23T13:38:08.865Z,12.8
2022-10-23T13:40:07.300Z,12.7
2022-10-23T13:42:13.479Z,12.7
2022-10-23T13:44:02.763Z,12.2
2022-10-23T13:46:02.725Z,9.7
2022-10-23T13:48:02.144Z,9.3
2022-10-23T13:50:02.196Z,8.4
2022-10-23T13:52:02.322Z,11.3
2022-10-23T13:54:02.143Z,9.7
2022-10-23T13:56:02.287Z,9.9
2022-10-23T13:58:02.814Z,11.9
2022-10-23T14:00:02.202Z,9.8
2022-10-23T14:02:04.548Z,9.8
2022-10-23T14:04:04.285Z,9.8
2022-10-23T14:06:02.274Z,10.3
2022-10-23T14:08:02.253Z,10.5
2022-10-23T14:10:02.700Z,9.9
2022-10-23T14:12:02.140Z,9.3
2022-10-23T14:14:02.463Z,8.3
2022-10-23T14:16:03.122Z,8.7
2022-10-23T14:18:07.280Z,9.6
2022-10-23T14:20:04.112Z,9.3
2022-10-23T14:22:02.956Z,6.4
2022-10-23T14:24:02.178Z,8.3
2022-10-23T14:26:03.044Z,6.8
2022-10-23T14:28:02.364Z,8.6
2022-10-23T14:30:02.192Z,6.7
2022-10-23T14:32:02.218Z,9.3
2022-10-23T14:34:02.218Z,6.2
2022-10-23T14:36:03.259Z,9.0
2022-10-23T14:38:02.160Z,8.8
2022-10-23T14:40:02.457Z,7.2
2022-10-23T14:42:02.940Z,8.3
2022-10-23T14:44:02.176Z,5.9
2022-10-23T14:46:09.685Z,7.9
2022-10-23T14:48:02.230Z,6.7
2022-10-23T14:50:02.255Z,7.2
2022-10-23T14:52:02.553Z,7.0
2022-10-23T14:54:04.566Z,8.4
2022-10-23T14:56:04.811Z,13.7
2022-10-23T14:58:02.779Z,8.7
2022-10-23T15:00:02.191Z,6.9
2022-10-23T15:02:02.253Z,8.2
2022-10-23T15:04:03.304Z,7.3
2022-10-23T15:06:03.719Z,7.2
2022-10-23T15:08:02.273Z,7.0
2022-10-23T15:10:02.305Z,7.3
2022-10-23T15:12:02.294Z,9.7
2022-10-23T15:14:02.795Z,9.9
2022-10-23T15:16:05.678Z,10.0
2022-10-23T15:18:02.173Z,8.2
2022-10-23T15:20:02.780Z,7.4
2022-10-23T15:22:02.193Z,8.4
2022-10-23T15:24:02.460Z,10.6
2022-10-23T15:26:04.445Z,7.7
2022-10-23T15:28:02.374Z,7.7
2022-10-23T15:30:02.375Z,7.8
2022-10-23T15:32:04.326Z,8.2
2022-10-23T15:34:02.228Z,12.3
2022-10-23T15:36:02.198Z,9.3
2022-10-23T15:38:02.775Z,9.9
2022-10-23T15:40:03.342Z,9.2
2022-10-23T15:42:04.551Z,8.0
2022-10-23T15:44:05.369Z,9.8
2022-10-23T15:46:02.196Z,9.8
2022-10-23T15:48:02.170Z,7.8
2022-10-23T15:50:02.236Z,6.8
2022-10-23T15:52:03.743Z,7.7
2022-10-23T15:54:03.284Z,8.6
2022-10-23T15:56:02.441Z,9.6
2022-10-23T15:58:04.464Z,10.1
2022-10-23T16:00:02.355Z,10.6
2022-10-23T16:02:02.343Z,10.6
2022-10-23T16:04:03.009Z,9.0
2022-10-23T16:06:03.664Z,8.3
2022-10-23T16:08:02.537Z,10.6
2022-10-23T16:10:03.001Z,8.3
2022-10-23T16:12:02.198Z,9.0
2022-10-23T16:14:03.834Z,7.6
2022-10-23T16:16:04.131Z,8.6
2022-10-23T16:18:02.320Z,10.4
2022-10-23T16:20:02.236Z,9.0
2022-10-23T16:22:02.708Z,11.2
2022-10-23T16:24:05.049Z,9.4
2022-10-23T16:26:04.628Z,10.3
2022-10-23T16:28:02.898Z,10.7
2022-10-23T16:30:02.207Z,9.7
2022-10-23T16:32:02.410Z,10.1
2022-10-23T16:34:04.882Z,10.1
2022-10-23T16:36:04.036Z,13.4
2022-10-23T16:38:03.182Z,13.5
2022-10-23T16:40:04.569Z,14.3
2022-10-23T16:42:03.239Z,15.3
2022-10-23T16:44:02.443Z,15.3
2022-10-23T16:46:05.991Z,14.5
2022-10-23T16:48:02.174Z,15.7
2022-10-23T16:50:02.282Z,16.3
2022-10-23T16:52:02.415Z,11.3
2022-10-23T16:54:02.447Z,12.4
2022-10-23T16:56:04.933Z,12.8
2022-10-23T16:58:02.475Z,15.5
2022-10-23T17:00:02.316Z,15.5
2022-10-23T17:02:02.417Z,15.0
2022-10-23T17:04:02.504Z,11.5
2022-10-23T17:06:06.160Z,13.4
2022-10-23T17:08:03.031Z,11.4
2022-10-23T17:10:02.186Z,12.5
2022-10-23T17:12:02.189Z,13.5
2022-10-23T17:14:06.130Z,14.5
2022-10-23T17:16:06.317Z,12.4
2022-10-23T17:18:02.180Z,12.6
2022-10-23T17:20:03.162Z,9.6
2022-10-23T17:22:02.286Z,8.6
2022-10-23T17:26:03.988Z,8.0
2022-10-23T17:28:02.903Z,7.0
2022-10-23T17:30:02.223Z,7.2
2022-10-23T17:32:02.810Z,7.2
2022-10-23T17:34:05.991Z,7.2
2022-10-23T17:36:02.219Z,7.2
2022-10-23T17:38:02.267Z,6.4
2022-10-23T17:40:03.294Z,8.5
2022-10-23T17:42:02.203Z,6.3
2022-10-23T17:46:04.076Z,7.5
2022-10-23T17:48:02.423Z,6.7
2022-10-23T17:50:02.830Z,8.0
2022-10-23T17:52:02.448Z,6.5
2022-10-23T17:54:04.190Z,6.8
2022-10-23T17:56:03.794Z,6.3
2022-10-23T17:58:02.207Z,5.7
2022-10-23T18:00:03.523Z,7.1
2022-10-23T18:02:02.754Z,6.8
2022-10-23T18:04:05.563Z,7.2
2022-10-23T18:06:06.745Z,7.3
2022-10-23T18:08:02.226Z,7.3
2022-10-23T18:10:02.912Z,7.2
2022-10-23T18:12:02.209Z,7.5
2022-10-23T18:14:03.836Z,9.0
2022-10-23T18:16:03.800Z,9.2
2022-10-23T18:18:07.277Z,7.7
2022-10-23T18:20:03.822Z,10.3
2022-10-23T18:22:02.183Z,6.5
2022-10-23T18:24:03.778Z,6.8
2022-10-23T18:26:03.693Z,8.7
2022-10-23T18:28:03.049Z,8.3
2022-10-23T18:30:03.021Z,8.6
2022-10-23T18:32:02.442Z,7.3
2022-10-23T18:34:04.578Z,7.8
2022-10-23T18:36:02.183Z,6.5
2022-10-23T18:38:03.267Z,6.6
2022-10-23T18:40:02.448Z,7.5
2022-10-23T18:42:02.189Z,6.8
2022-10-23T18:44:03.032Z,6.1
2022-10-23T18:46:02.186Z,7.4
2022-10-23T18:48:03.517Z,7.2
2022-10-23T18:50:02.275Z,6.7
2022-10-23T18:52:03.013Z,10.3
2022-10-23T18:54:05.716Z,9.4
2022-10-23T18:56:02.419Z,7.5
2022-10-23T18:58:02.172Z,7.1
2022-10-23T19:00:04.538Z,8.0
2022-10-23T19:02:03.152Z,5.8
2022-10-23T19:04:04.114Z,6.4
2022-10-23T19:06:02.260Z,6.7
2022-10-23T19:08:02.625Z,6.7
2022-10-23T19:10:03.426Z,7.7
2022-10-23T19:12:04.021Z,6.4
2022-10-23T19:14:02.319Z,6.9
2022-10-23T19:16:04.559Z,6.6
2022-10-23T19:18:03.110Z,6.6
2022-10-23T19:20:07.242Z,8.6
2022-10-23T19:22:04.244Z,6.3
2022-10-23T19:24:07.356Z,9.0
2022-10-23T19:26:04.818Z,8.0
2022-10-23T19:28:04.462Z,7.5
2022-10-23T19:30:05.077Z,8.0
2022-10-23T19:32:02.765Z,7.5
2022-10-23T19:34:02.297Z,7.8
2022-10-23T19:36:05.351Z,7.5
2022-10-23T19:38:03.055Z,6.6
2022-10-23T19:40:06.129Z,7.6
2022-10-23T19:42:02.954Z,8.9
2022-10-23T19:44:02.279Z,7.8
2022-10-23T19:46:06.348Z,6.7
2022-10-23T19:48:02.246Z,7.2
2022-10-23T19:50:03.712Z,8.3
2022-10-23T19:52:02.364Z,6.4
2022-10-23T19:54:02.905Z,10.9
2022-10-23T19:56:04.368Z,6.4
2022-10-23T19:58:02.199Z,7.2
2022-10-23T20:00:04.036Z,7.2
2022-10-23T20:02:03.205Z,7.7
2022-10-23T20:04:02.367Z,7.9
2022-10-23T20:06:02.179Z,7.8
2022-10-23T20:08:02.426Z,9.1
2022-10-23T20:10:02.354Z,7.0
2022-10-23T20:12:03.587Z,7.2
2022-10-23T20:14:03.112Z,7.8
2022-10-23T20:16:02.992Z,7.7
2022-10-23T20:18:02.152Z,6.7
2022-10-23T20:20:03.761Z,6.6
2022-10-23T20:22:02.222Z,8.6
2022-10-23T20:24:02.957Z,7.8
2022-10-23T20:26:07.510Z,7.7
2022-10-23T20:28:02.375Z,7.8
2022-10-23T20:30:02.180Z,7.8
2022-10-23T20:32:03.088Z,7.4
2022-10-23T20:34:03.631Z,7.4
2022-10-23T20:36:03.580Z,7.8
2022-10-23T20:38:02.239Z,5.7
2022-10-23T20:40:02.954Z,10.1
2022-10-23T20:42:03.989Z,8.9
2022-10-23T20:44:02.360Z,8.3
2022-10-23T20:46:05.053Z,8.7
2022-10-23T20:48:02.254Z,7.6
2022-10-23T20:50:02.307Z,9.6
2022-10-23T20:52:02.672Z,7.6
2022-10-23T20:54:03.109Z,9.5
2022-10-23T20:56:06.268Z,8.0
2022-10-23T20:58:02.762Z,8.6
2022-10-23T21:00:04.640Z,9.1
2022-10-23T21:02:02.855Z,8.8
2022-10-23T21:04:03.532Z,7.9
2022-10-23T21:06:04.412Z,9.3
2022-10-23T21:08:02.266Z,8.2
2022-10-23T21:10:03.874Z,7.0
2022-10-23T21:12:02.188Z,6.9
2022-10-23T21:14:03.388Z,8.1
2022-10-23T21:16:12.458Z,7.4
2022-10-23T21:18:13.054Z,7.0
2022-10-23T21:20:02.652Z,7.6
2022-10-23T21:22:02.776Z,9.3
2022-10-23T21:24:07.290Z,8.2
2022-10-23T21:26:06.312Z,8.2
2022-10-23T21:28:02.562Z,8.7
2022-10-23T21:30:02.209Z,10.1
2022-10-23T21:32:02.524Z,8.6
2022-10-23T21:34:03.235Z,7.4
2022-10-23T21:36:13.703Z,10.0
2022-10-23T21:38:02.253Z,8.7
2022-10-23T21:40:02.384Z,7.9
2022-10-23T21:42:02.207Z,8.3
2022-10-23T21:44:05.504Z,8.6
2022-10-23T21:46:04.741Z,9.0
2022-10-23T21:48:02.175Z,8.5
2022-10-23T21:50:02.259Z,7.9
2022-10-23T21:52:03.729Z,8.4
2022-10-23T21:54:03.193Z,7.9
2022-10-23T21:56:11.742Z,6.5
2022-10-23T21:58:02.193Z,7.5
2022-10-23T22:00:04.339Z,7.7
2022-10-23T22:02:02.324Z,7.7
2022-10-23T22:04:02.977Z,8.0
2022-10-23T22:06:02.160Z,7.8
2022-10-23T22:08:03.161Z,8.5
2022-10-23T22:10:02.281Z,8.2
2022-10-23T22:12:02.959Z,8.6
2022-10-23T22:14:02.198Z,7.3
2022-10-23T22:16:03.693Z,7.3
2022-10-23T22:18:02.749Z,6.3
2022-10-23T22:20:02.462Z,9.7
2022-10-23T22:22:02.190Z,8.0
2022-10-23T22:26:05.913Z,7.2
2022-10-23T22:28:02.366Z,7.1
2022-10-23T22:30:03.384Z,6.5
2022-10-23T22:32:02.283Z,7.8
2022-10-23T22:34:13.371Z,6.8
2022-10-23T22:38:02.549Z,6.7
2022-10-23T22:40:02.458Z,8.1
2022-10-23T22:42:02.207Z,7.8
2022-10-23T22:44:02.409Z,8.0
2022-10-23T22:46:04.351Z,8.6
2022-10-23T22:48:02.782Z,7.7
2022-10-23T22:50:02.190Z,7.8
2022-10-23T22:52:02.478Z,9.0
2022-10-23T22:54:02.168Z,7.8
2022-10-23T22:56:06.090Z,9.8
2022-10-23T22:58:02.361Z,7.8
2022-10-23T23:00:02.365Z,8.9
2022-10-23T23:02:02.255Z,7.8
2022-10-23T23:04:13.800Z,8.2
2022-10-23T23:06:04.186Z,7.9
2022-10-23T23:08:02.977Z,6.2
2022-10-23T23:10:03.192Z,8.3
2022-10-23T23:12:02.374Z,8.0
2022-10-23T23:14:02.927Z,8.9
2022-10-23T23:16:03.195Z,8.4
2022-10-23T23:18:02.163Z,7.6
2022-10-23T23:20:02.641Z,7.9
2022-10-23T23:22:03.262Z,7.4
2022-10-23T23:24:02.262Z,8.3
2022-10-23T23:26:05.639Z,8.4
2022-10-23T23:28:02.338Z,8.9
2022-10-23T23:30:05.075Z,10.1
2022-10-23T23:32:02.716Z,8.0
2022-10-23T23:34:02.277Z,7.9
2022-10-23T23:36:06.685Z,9.3
2022-10-23T23:38:02.759Z,7.9
2022-10-23T23:40:02.982Z,8.6
2022-10-23T23:42:02.178Z,8.5
2022-10-23T23:44:02.475Z,10.2
2022-10-23T23:46:02.191Z,7.7
2022-10-23T23:48:02.232Z,7.5
2022-10-23T23:50:02.246Z,8.0
2022-10-23T23:52:03.011Z,10.2
2022-10-23T23:54:02.156Z,8.6
2022-10-23T23:56:03.018Z,8.4
2022-10-23T23:58:02.965Z,9.7
